Time;durP1;ratioP1;P1;durP2;ratioP2;P2;SDS_P1;SDS_P2;PMS_P1;PMS_P2;Temp;Humidity;BMP_temperature;BMP_pressure;BME280_temperature;BME280_humidity;BME280_pressure;Samples;Min_cycle;Max_cycle;Signal;HPM_P1;HPM_P2
2022/03/03 00:06:45;;;;;;;;;195.50;179.50;;;;;;;;2;288084764;288084764;-77
2022/03/03 00:15:01;;;;;;;;;181.00;171.50;;;;;;;;2;261079222;261079222;-77
2022/03/03 00:24:28;;;;;;;;;128.50;124.00;;;;;;;;2;288083414;288083414;-77
2022/03/03 00:32:44;;;;;;;;;127.50;126.50;;;;;;;;2;261075167;261075167;-77
2022/03/03 00:42:11;;;;;;;;;145.50;145.50;;;;;;;;2;288082296;288082296;-77
2022/03/03 00:50:26;;;;;;;;;182.00;167.50;;;;;;;;2;261075895;261075895;-77
2022/03/03 00:59:54;;;;;;;;;165.00;165.00;;;;;;;;2;288084630;288084630;-77
2022/03/03 01:08:10;;;;;;;;;229.50;217.50;;;;;;;;2;261077153;261077153;-77
2022/03/03 01:17:38;;;;;;;;;178.00;178.00;;;;;;;;2;288086353;288086353;-77
2022/03/03 01:25:53;;;;;;;;;204.50;190.00;;;;;;;;2;261075096;261075096;-77
2022/03/03 01:35:21;;;;;;;;;266.50;266.50;;;;;;;;2;288083755;288083755;-77
2022/03/03 01:43:37;;;;;;;;;205.00;199.50;;;;;;;;2;261074334;261074334;-77
2022/03/03 01:53:04;;;;;;;;;206.00;200.00;;;;;;;;2;288082941;288082941;-77
2022/03/03 02:01:20;;;;;;;;;243.50;207.00;;;;;;;;2;261077789;261077789;-77
2022/03/03 02:10:47;;;;;;;;;253.00;251.00;;;;;;;;2;288085546;288085546;-77
2022/03/03 02:19:03;;;;;;;;;234.50;234.50;;;;;;;;2;261080068;261080068;-77
2022/03/03 02:28:30;;;;;;;;;282.00;278.50;;;;;;;;2;288086692;288086692;-78
2022/03/03 02:36:46;;;;;;;;;353.00;353.00;;;;;;;;2;261077862;261077862;-77
2022/03/03 02:46:14;;;;;;;;;290.00;290.00;;;;;;;;2;288083296;288083296;-77
2022/03/03 02:54:29;;;;;;;;;195.00;194.00;;;;;;;;2;261077648;261077648;-77
2022/03/03 03:03:56;;;;;;;;;110.50;106.00;;;;;;;;2;288084573;288084573;-78
2022/03/03 03:12:12;;;;;;;;;72.00;72.00;;;;;;;;2;261075766;261075766;-78
2022/03/03 03:21:40;;;;;;;;;71.00;71.00;;;;;;;;2;288087788;288087788;-78
2022/03/03 03:29:55;;;;;;;;;60.50;60.50;;;;;;;;2;261077241;261077241;-78
2022/03/03 03:39:23;;;;;;;;;26.50;22.50;;;;;;;;2;288084522;288084522;-78
2022/03/03 03:47:39;;;;;;;;;0.00;0.00;;;;;;;;2;261076246;261076246;-78
2022/03/03 03:57:06;;;;;;;;;0.00;0.00;;;;;;;;2;288087351;288087351;-78
2022/03/03 04:05:22;;;;;;;;;0.00;0.00;;;;;;;;2;261079765;261079765;-78
2022/03/03 04:14:49;;;;;;;;;0.00;0.00;;;;;;;;2;288083292;288083292;-77
2022/03/03 04:23:05;;;;;;;;;0.00;0.00;;;;;;;;2;261079462;261079462;-78
2022/03/03 04:32:32;;;;;;;;;0.00;0.00;;;;;;;;2;288085950;288085950;-78
2022/03/03 04:40:48;;;;;;;;;0.00;0.00;;;;;;;;2;261078288;261078288;-77
2022/03/03 04:50:16;;;;;;;;;0.00;0.00;;;;;;;;2;288086061;288086061;-78
2022/03/03 04:58:31;;;;;;;;;0.00;0.00;;;;;;;;2;261079932;261079932;-78
2022/03/03 05:07:59;;;;;;;;;0.00;0.00;;;;;;;;2;288083803;288083803;-78
2022/03/03 05:16:14;;;;;;;;;0.00;0.00;;;;;;;;2;261077099;261077099;-78
2022/03/03 05:25:42;;;;;;;;;0.00;0.00;;;;;;;;2;288085200;288085200;-78
2022/03/03 05:33:57;;;;;;;;;0.00;0.00;;;;;;;;2;261075784;261075784;-78
2022/03/03 05:43:25;;;;;;;;;0.00;0.00;;;;;;;;2;288083663;288083663;-78
2022/03/03 05:51:41;;;;;;;;;0.00;0.00;;;;;;;;2;261077738;261077738;-78
2022/03/03 06:01:09;;;;;;;;;0.00;0.00;;;;;;;;2;288084246;288084246;-78
2022/03/03 06:09:30;;;;;;;;;0.00;0.00;;;;;;;;2;261077314;261077314;-78
2022/03/03 06:18:58;;;;;;;;;0.00;0.00;;;;;;;;2;288084013;288084013;-78
2022/03/03 06:27:14;;;;;;;;;0.00;0.00;;;;;;;;2;261078142;261078142;-78
2022/03/03 06:36:41;;;;;;;;;0.00;0.00;;;;;;;;2;288086921;288086921;-78
2022/03/03 06:44:57;;;;;;;;;0.00;0.00;;;;;;;;2;261077824;261077824;-78
2022/03/03 06:54:24;;;;;;;;;0.00;0.00;;;;;;;;2;288081450;288081450;-78
2022/03/03 07:02:41;;;;;;;;;0.00;0.00;;;;;;;;2;261077502;261077502;-78
2022/03/03 07:12:10;;;;;;;;;0.00;0.00;;;;;;;;2;288085301;288085301;-78
2022/03/03 07:20:29;;;;;;;;;0.00;0.00;;;;;;;;2;261077286;261077286;-78
2022/03/03 07:29:58;;;;;;;;;0.00;0.00;;;;;;;;2;288083479;288083479;-78
2022/03/03 07:38:15;;;;;;;;;0.00;0.00;;;;;;;;2;261075510;261075510;-78
2022/03/03 07:47:42;;;;;;;;;0.00;0.00;;;;;;;;2;288086719;288086719;-78
2022/03/03 07:56:01;;;;;;;;;0.00;0.00;;;;;;;;2;261077943;261077943;-78
2022/03/03 08:05:29;;;;;;;;;0.00;0.00;;;;;;;;2;288083762;288083762;-78
2022/03/03 08:13:46;;;;;;;;;0.00;0.00;;;;;;;;2;261074113;261074113;-78
2022/03/03 08:23:14;;;;;;;;;0.00;0.00;;;;;;;;2;288085492;288085492;-78
2022/03/03 08:31:35;;;;;;;;;0.00;0.00;;;;;;;;2;261074637;261074637;-78
2022/03/03 08:41:04;;;;;;;;;0.00;0.00;;;;;;;;2;288082462;288082462;-78
2022/03/03 08:49:20;;;;;;;;;0.00;0.00;;;;;;;;2;261076588;261076588;-78
2022/03/03 08:58:47;;;;;;;;;0.00;0.00;;;;;;;;2;288083869;288083869;-78
2022/03/03 09:07:03;;;;;;;;;0.00;0.00;;;;;;;;2;261073779;261073779;-78
2022/03/03 09:16:30;;;;;;;;;0.00;0.00;;;;;;;;2;288083128;288083128;-79
2022/03/03 09:24:46;;;;;;;;;0.00;0.00;;;;;;;;2;261078095;261078095;-79
2022/03/03 09:34:13;;;;;;;;;0.00;0.00;;;;;;;;2;288084246;288084246;-79
2022/03/03 09:42:34;;;;;;;;;0.00;0.00;;;;;;;;2;261075345;261075345;-79
2022/03/03 09:52:02;;;;;;;;;0.00;0.00;;;;;;;;2;288086462;288086462;-79
2022/03/03 10:00:17;;;;;;;;;0.00;0.00;;;;;;;;2;261075843;261075843;-79
2022/03/03 10:10:00;;;;;;;;;0.00;0.00;;;;;;;;2;288084654;288084654;-79
2022/03/03 10:18:16;;;;;;;;;0.00;0.00;;;;;;;;2;261077864;261077864;-79
2022/03/03 10:27:44;;;;;;;;;0.00;0.00;;;;;;;;2;288084647;288084647;-79
2022/03/03 10:36:06;;;;;;;;;0.00;0.00;;;;;;;;2;261076346;261076346;-79
2022/03/03 10:45:35;;;;;;;;;0.00;0.00;;;;;;;;2;288085615;288085615;-78
2022/03/03 10:54:03;;;;;;;;;0.00;0.00;;;;;;;;2;261076367;261076367;-79
2022/03/03 11:03:30;;;;;;;;;0.00;0.00;;;;;;;;2;288083605;288083605;-79
2022/03/03 11:11:46;;;;;;;;;0.00;0.00;;;;;;;;2;261073911;261073911;-79
2022/03/03 11:21:14;;;;;;;;;0.00;0.00;;;;;;;;2;288086375;288086375;-79
2022/03/03 11:29:32;;;;;;;;;0.00;0.00;;;;;;;;2;261077387;261077387;-79
2022/03/03 11:39:04;;;;;;;;;0.00;0.00;;;;;;;;2;288083728;288083728;-79
2022/03/03 11:47:22;;;;;;;;;0.00;0.00;;;;;;;;2;261075192;261075192;-79
2022/03/03 11:57:04;;;;;;;;;0.00;0.00;;;;;;;;2;288082532;288082532;-79
2022/03/03 12:05:26;;;;;;;;;0.00;0.00;;;;;;;;2;261077395;261077395;-79
2022/03/03 12:14:57;;;;;;;;;0.00;0.00;;;;;;;;2;288080132;288080132;-79
2022/03/03 12:23:16;;;;;;;;;0.00;0.00;;;;;;;;2;261075988;261075988;-79
2022/03/03 12:32:44;;;;;;;;;0.00;0.00;;;;;;;;2;288082238;288082238;-79
2022/03/03 12:41:00;;;;;;;;;0.00;0.00;;;;;;;;2;261074461;261074461;-79
2022/03/03 12:50:29;;;;;;;;;0.00;0.00;;;;;;;;2;288082211;288082211;-79
2022/03/03 12:58:46;;;;;;;;;0.00;0.00;;;;;;;;2;261078917;261078917;-79
2022/03/03 13:08:21;;;;;;;;;0.00;0.00;;;;;;;;2;288082073;288082073;-79
2022/03/03 13:16:38;;;;;;;;;0.00;0.00;;;;;;;;2;261077858;261077858;-79
2022/03/03 13:26:06;;;;;;;;;0.00;0.00;;;;;;;;2;288083734;288083734;-79
2022/03/03 13:34:24;;;;;;;;;0.00;0.00;;;;;;;;2;261075683;261075683;-79
2022/03/03 13:44:08;;;;;;;;;0.00;0.00;;;;;;;;2;288082656;288082656;-79
2022/03/03 13:52:27;;;;;;;;;0.00;0.00;;;;;;;;2;261077741;261077741;-79
2022/03/03 14:02:06;;;;;;;;;0.00;0.00;;;;;;;;2;288082025;288082025;-79
2022/03/03 14:10:22;;;;;;;;;0.00;0.00;;;;;;;;2;261076749;261076749;-78
2022/03/03 14:19:50;;;;;;;;;0.00;0.00;;;;;;;;2;288084866;288084866;-78
2022/03/03 14:28:05;;;;;;;;;0.00;0.00;;;;;;;;2;261076758;261076758;-79
2022/03/03 14:37:33;;;;;;;;;0.00;0.00;;;;;;;;2;288083061;288083061;-79
2022/03/03 14:45:49;;;;;;;;;0.00;0.00;;;;;;;;2;261074735;261074735;-79
2022/03/03 14:55:17;;;;;;;;;0.00;0.00;;;;;;;;2;288087429;288087429;-79
2022/03/03 15:03:32;;;;;;;;;0.00;0.00;;;;;;;;2;261077638;261077638;-79
2022/03/03 15:13:02;;;;;;;;;0.00;0.00;;;;;;;;2;288083550;288083550;-79
2022/03/03 15:21:17;;;;;;;;;0.00;0.00;;;;;;;;2;261072774;261072774;-78
2022/03/03 15:30:45;;;;;;;;;0.00;0.00;;;;;;;;2;288085673;288085673;-79
2022/03/03 15:39:00;;;;;;;;;0.00;0.00;;;;;;;;2;261074911;261074911;-79
2022/03/03 15:48:28;;;;;;;;;0.00;0.00;;;;;;;;2;288084487;288084487;-79
2022/03/03 15:56:45;;;;;;;;;0.00;0.00;;;;;;;;2;261077445;261077445;-78
2022/03/03 16:06:12;;;;;;;;;0.00;0.00;;;;;;;;2;288085818;288085818;-79
2022/03/03 16:14:28;;;;;;;;;0.00;0.00;;;;;;;;2;261077302;261077302;-79
2022/03/03 16:23:55;;;;;;;;;0.00;0.00;;;;;;;;2;288083313;288083313;-79
2022/03/03 16:32:16;;;;;;;;;0.00;0.00;;;;;;;;2;261074809;261074809;-78
2022/03/03 16:41:46;;;;;;;;;0.00;0.00;;;;;;;;2;288082696;288082696;-78
2022/03/03 17:06:22;;;;;;;;;0.00;0.00;;;;;;;;176707;27;261077896;-78
2022/03/03 17:15:50;;;;;;;;;0.00;0.00;;;;;;;;2;288086038;288086038;-78
2022/03/03 17:24:11;;;;;;;;;0.00;0.00;;;;;;;;2;261076390;261076390;-78
2022/03/03 17:33:39;;;;;;;;;0.00;0.00;;;;;;;;2;288082230;288082230;-78
2022/03/03 17:41:54;;;;;;;;;0.00;0.00;;;;;;;;2;261077430;261077430;-78
2022/03/03 17:51:22;;;;;;;;;0.00;0.00;;;;;;;;2;288085157;288085157;-77
2022/03/03 17:59:38;;;;;;;;;0.00;0.00;;;;;;;;2;261078722;261078722;-78
2022/03/03 18:09:06;;;;;;;;;0.00;0.00;;;;;;;;2;288082079;288082079;-77
2022/03/03 18:17:21;;;;;;;;;0.00;0.00;;;;;;;;2;261081504;261081504;-78
2022/03/03 18:26:49;;;;;;;;;0.00;0.00;;;;;;;;2;288086210;288086210;-78
2022/03/03 18:35:05;;;;;;;;;0.00;0.00;;;;;;;;2;261075772;261075772;-78
2022/03/03 18:44:34;;;;;;;;;0.00;0.00;;;;;;;;2;288084417;288084417;-78
2022/03/03 18:52:49;;;;;;;;;0.00;0.00;;;;;;;;2;261073528;261073528;-78
2022/03/03 19:02:17;;;;;;;;;0.00;0.00;;;;;;;;2;288084886;288084886;-78
2022/03/03 19:10:33;;;;;;;;;0.00;0.00;;;;;;;;2;261076026;261076026;-78
2022/03/03 19:20:01;;;;;;;;;0.00;0.00;;;;;;;;2;288085016;288085016;-78
2022/03/03 19:28:17;;;;;;;;;0.00;0.00;;;;;;;;2;261076514;261076514;-78
2022/03/03 19:37:45;;;;;;;;;0.00;0.00;;;;;;;;2;288083878;288083878;-78
2022/03/03 19:46:01;;;;;;;;;0.00;0.00;;;;;;;;2;261078042;261078042;-78
2022/03/03 19:55:29;;;;;;;;;0.00;0.00;;;;;;;;2;288087064;288087064;-78
2022/03/03 20:03:44;;;;;;;;;0.00;0.00;;;;;;;;2;261077514;261077514;-78
2022/03/03 20:13:12;;;;;;;;;0.00;0.00;;;;;;;;2;288085428;288085428;-78
2022/03/03 20:21:27;;;;;;;;;0.00;0.00;;;;;;;;2;261080170;261080170;-78
2022/03/03 20:30:55;;;;;;;;;0.00;0.00;;;;;;;;2;288082352;288082352;-78
2022/03/03 20:39:10;;;;;;;;;0.00;0.00;;;;;;;;2;261078962;261078962;-78
2022/03/03 20:48:38;;;;;;;;;0.00;0.00;;;;;;;;2;288084707;288084707;-78
2022/03/03 20:56:54;;;;;;;;;0.00;0.00;;;;;;;;2;261076746;261076746;-79
2022/03/03 21:06:21;;;;;;;;;0.00;0.00;;;;;;;;2;288083573;288083573;-78
2022/03/03 21:14:37;;;;;;;;;0.00;0.00;;;;;;;;2;261077647;261077647;-79
2022/03/03 21:24:05;;;;;;;;;0.00;0.00;;;;;;;;2;288081032;288081032;-78
2022/03/03 21:32:20;;;;;;;;;0.00;0.00;;;;;;;;2;261076771;261076771;-78
2022/03/03 21:41:48;;;;;;;;;0.00;0.00;;;;;;;;2;288084901;288084901;-78
2022/03/03 21:50:04;;;;;;;;;0.00;0.00;;;;;;;;2;261078647;261078647;-78
2022/03/03 21:59:32;;;;;;;;;0.00;0.00;;;;;;;;2;288084765;288084765;-78
2022/03/03 22:07:48;;;;;;;;;0.00;0.00;;;;;;;;2;261072992;261072992;-78
2022/03/03 22:17:17;;;;;;;;;0.00;0.00;;;;;;;;2;288084499;288084499;-78
2022/03/03 22:25:33;;;;;;;;;0.00;0.00;;;;;;;;2;261075803;261075803;-78
2022/03/03 22:35:00;;;;;;;;;0.00;0.00;;;;;;;;2;288084558;288084558;-78
2022/03/03 22:43:16;;;;;;;;;0.00;0.00;;;;;;;;2;261077431;261077431;-78
2022/03/03 22:52:44;;;;;;;;;0.00;0.00;;;;;;;;2;288083510;288083510;-78
2022/03/03 23:01:02;;;;;;;;;0.00;0.00;;;;;;;;2;261079384;261079384;-78
2022/03/03 23:10:29;;;;;;;;;0.00;0.00;;;;;;;;2;288083627;288083627;-77
2022/03/03 23:18:46;;;;;;;;;0.00;0.00;;;;;;;;2;261075099;261075099;-78
2022/03/03 23:28:14;;;;;;;;;0.00;0.00;;;;;;;;2;288084473;288084473;-78
2022/03/03 23:36:30;;;;;;;;;0.00;0.00;;;;;;;;2;261077797;261077797;-78
2022/03/03 23:45:57;;;;;;;;;0.00;0.00;;;;;;;;2;288083516;288083516;-78
2022/03/03 23:54:13;;;;;;;;;0.00;0.00;;;;;;;;2;261077874;261077874;-78
